Time;durP1;ratioP1;P1;durP2;ratioP2;P2;SDS_P1;SDS_P2;PMS_P1;PMS_P2;Temp;Humidity;BMP_temperature;BMP_pressure;BME280_temperature;BME280_humidity;BME280_pressure;Samples;Min_cycle;Max_cycle;Signal;HPM_P1;HPM_P2
2021/03/17 00:01:05;;;;;;;10.55;4.50;;;3.20;99.90;;;;;;5049784;28;20394;-74
2021/03/17 00:03:30;;;;;;;11.05;4.63;;;3.10;99.90;;;;;;5045397;28;20032;-75
2021/03/17 00:05:56;;;;;;;7.35;3.70;;;3.20;99.90;;;;;;5053451;28;20791;-75
2021/03/17 00:08:22;;;;;;;7.07;3.95;;;3.10;99.90;;;;;;5058037;28;20028;-74
2021/03/17 00:10:51;;;;;;;10.70;4.32;;;3.10;99.90;;;;;;5050789;28;20453;-75
2021/03/17 00:13:26;;;;;;;7.20;4.18;;;3.10;99.90;;;;;;5056587;28;20647;-75
2021/03/17 00:15:53;;;;;;;7.55;4.00;;;3.10;99.90;;;;;;5048966;28;20045;-74
2021/03/17 00:18:19;;;;;;;7.55;4.15;;;3.10;99.90;;;;;;5048895;28;20048;-74
2021/03/17 00:20:45;;;;;;;11.35;4.07;;;3.20;99.90;;;;;;5046752;28;20068;-74
2021/03/17 00:23:11;;;;;;;6.68;3.65;;;3.10;99.90;;;;;;5046947;28;20425;-75
2021/03/17 00:25:39;;;;;;;7.35;4.75;;;3.00;99.90;;;;;;5044274;28;20407;-75
2021/03/17 00:28:05;;;;;;;8.52;5.00;;;2.90;99.90;;;;;;5059849;28;20028;-74
2021/03/17 00:30:33;;;;;;;9.80;4.22;;;2.90;99.90;;;;;;5044373;28;20025;-75
2021/03/17 00:33:00;;;;;;;13.15;5.00;;;2.90;99.90;;;;;;5047004;28;20305;-75
2021/03/17 00:35:27;;;;;;;9.07;4.15;;;3.00;99.90;;;;;;5053330;28;20032;-75
2021/03/17 00:37:52;;;;;;;9.05;4.22;;;3.00;99.90;;;;;;5058174;28;20395;-75
2021/03/17 00:40:19;;;;;;;9.07;4.30;;;3.10;99.90;;;;;;5045860;28;20036;-75
2021/03/17 00:42:44;;;;;;;9.15;4.07;;;3.20;99.90;;;;;;5051351;28;20055;-74
2021/03/17 00:45:11;;;;;;;9.00;4.57;;;3.20;99.90;;;;;;5053570;28;20053;-74
2021/03/17 00:47:37;;;;;;;7.50;4.53;;;3.20;99.90;;;;;;5043202;28;20540;-75
2021/03/17 00:50:05;;;;;;;6.07;3.88;;;3.30;99.90;;;;;;5056981;28;20052;-75
2021/03/17 00:52:31;;;;;;;7.15;4.20;;;3.30;99.90;;;;;;5048099;28;20033;-75
2021/03/17 00:54:56;;;;;;;6.20;3.80;;;3.30;99.90;;;;;;5052571;28;20110;-75
2021/03/17 00:57:22;;;;;;;9.02;4.35;;;3.40;99.90;;;;;;5042600;28;20036;-74
2021/03/17 00:59:47;;;;;;;9.25;4.85;;;3.30;99.90;;;;;;5049485;28;20020;-74
2021/03/17 01:02:13;;;;;;;8.43;4.35;;;3.30;99.90;;;;;;5047094;28;20052;-75
2021/03/17 01:04:39;;;;;;;8.65;4.22;;;3.30;99.90;;;;;;5041634;28;20026;-74
2021/03/17 01:07:08;;;;;;;8.55;4.72;;;3.30;99.90;;;;;;5061080;28;20387;-75
2021/03/17 01:09:33;;;;;;;9.10;4.25;;;3.30;99.90;;;;;;5054083;28;20032;-74
2021/03/17 01:11:59;;;;;;;7.47;4.05;;;3.30;99.90;;;;;;5058409;28;20025;-75
2021/03/17 01:14:25;;;;;;;9.63;4.85;;;3.30;99.90;;;;;;5051227;28;20029;-74
2021/03/17 01:16:51;;;;;;;8.52;4.50;;;3.20;99.90;;;;;;5045785;28;20049;-75
2021/03/17 01:19:16;;;;;;;10.10;4.28;;;3.20;99.90;;;;;;5061680;28;20243;-75
2021/03/17 01:21:42;;;;;;;10.15;4.45;;;3.30;99.90;;;;;;5048891;28;20029;-75
2021/03/17 01:24:08;;;;;;;12.52;4.85;;;3.20;99.90;;;;;;5043737;28;20025;-74
2021/03/17 01:26:33;;;;;;;7.97;4.30;;;3.20;99.90;;;;;;5053745;28;20375;-75
2021/03/17 01:28:59;;;;;;;8.88;4.80;;;3.20;99.90;;;;;;5043562;28;20021;-74
2021/03/17 01:31:24;;;;;;;11.02;4.28;;;3.20;99.90;;;;;;5045960;28;20422;-75
2021/03/17 01:33:52;;;;;;;9.48;4.82;;;3.20;99.90;;;;;;5042006;28;20035;-75
2021/03/17 01:36:17;;;;;;;11.43;5.22;;;3.10;99.90;;;;;;5049537;28;20262;-74
2021/03/17 01:38:43;;;;;;;10.43;4.80;;;3.00;99.90;;;;;;5041602;28;20471;-75
2021/03/17 01:41:08;;;;;;;11.30;4.78;;;3.00;99.90;;;;;;5051249;28;20025;-74
2021/03/17 01:43:34;;;;;;;10.65;4.78;;;3.00;99.90;;;;;;5046930;28;20017;-75
2021/03/17 01:46:00;;;;;;;14.70;5.72;;;3.00;99.90;;;;;;5060285;28;20400;-74
2021/03/17 01:48:25;;;;;;;14.85;5.32;;;3.00;99.90;;;;;;5046195;28;20049;-75
2021/03/17 01:50:56;;;;;;;13.30;4.65;;;3.00;99.90;;;;;;5050564;28;20032;-74
2021/03/17 01:53:28;;;;;;;11.15;4.80;;;2.90;99.90;;;;;;5045483;28;20029;-74
2021/03/17 01:55:55;;;;;;;9.77;4.70;;;2.90;99.90;;;;;;5065038;28;20028;-74
2021/03/17 01:58:21;;;;;;;14.82;5.15;;;2.80;99.90;;;;;;5059210;28;20120;-75
2021/03/17 02:00:47;;;;;;;9.98;4.88;;;2.70;99.90;;;;;;5053760;28;20023;-74
2021/03/17 02:03:13;;;;;;;10.77;4.75;;;2.70;99.90;;;;;;5050070;28;20094;-74
2021/03/17 02:05:42;;;;;;;9.80;4.93;;;2.70;99.90;;;;;;5044372;28;20029;-74
2021/03/17 02:08:11;;;;;;;12.80;5.25;;;2.70;99.90;;;;;;5045333;28;20127;-75
2021/03/17 02:10:37;;;;;;;9.50;4.57;;;2.80;99.90;;;;;;5057858;28;20188;-74
2021/03/17 02:13:22;;;;;;;9.45;5.10;;;2.70;99.90;;;;;;5040639;28;20039;-74
2021/03/17 02:16:06;;;;;;;6.95;3.90;;;2.70;99.90;;;;;;5047246;28;20108;-75
2021/03/17 02:18:50;;;;;;;9.80;4.93;;;2.70;99.90;;;;;;5047027;28;20078;-75
2021/03/17 02:21:33;;;;;;;9.00;4.72;;;2.60;99.90;;;;;;5046048;28;20231;-76
2021/03/17 02:24:25;;;;;;;10.45;4.95;;;2.60;99.90;;;;;;5053135;28;20367;-75
2021/03/17 02:27:15;;;;;;;13.02;5.25;;;2.60;99.90;;;;;;5060545;28;20028;-75
2021/03/17 02:30:19;;;;;;;12.05;5.10;;;2.50;99.90;;;;;;5063810;28;20027;-76
2021/03/17 02:33:30;;;;;;;9.73;4.80;;;2.50;99.90;;;;;;5055843;28;20048;-75
2021/03/17 02:36:10;;;;;;;13.77;4.80;;;2.40;99.90;;;;;;4969859;28;20057;-75
2021/03/17 02:38:38;;;;;;;9.82;4.55;;;2.40;99.90;;;;;;5056869;28;20064;-76
2021/03/17 02:41:06;;;;;;;10.38;4.70;;;2.40;99.90;;;;;;5054358;28;20109;-75
2021/03/17 02:43:34;;;;;;;11.25;5.38;;;2.30;99.90;;;;;;5048111;28;20791;-75
2021/03/17 02:46:06;;;;;;;9.65;4.88;;;2.30;99.90;;;;;;5055893;28;20037;-75
2021/03/17 02:48:41;;;;;;;9.25;4.97;;;2.30;99.90;;;;;;5048046;28;20048;-75
2021/03/17 02:51:18;;;;;;;14.85;5.50;;;2.30;99.90;;;;;;5045630;28;20051;-75
2021/03/17 02:53:46;;;;;;;15.25;5.90;;;2.40;99.90;;;;;;5051318;28;20481;-76
2021/03/17 02:56:13;;;;;;;9.15;5.68;;;2.50;99.90;;;;;;5053543;28;20388;-75
2021/03/17 02:58:44;;;;;;;9.00;5.35;;;2.40;99.90;;;;;;5062823;28;20121;-73
2021/03/17 03:01:13;;;;;;;12.38;6.00;;;2.40;99.90;;;;;;5054316;28;20383;-75
2021/03/17 03:03:39;;;;;;;12.38;5.35;;;2.50;99.90;;;;;;5053632;28;20750;-74
2021/03/17 03:06:07;;;;;;;12.07;5.18;;;2.50;99.90;;;;;;5045566;28;20143;-74
2021/03/17 03:08:35;;;;;;;14.20;5.72;;;2.50;99.90;;;;;;5059192;28;20029;-73
2021/03/17 03:11:01;;;;;;;10.68;5.43;;;2.50;99.90;;;;;;5060143;28;20059;-73
2021/03/17 03:13:28;;;;;;;16.52;5.95;;;2.60;99.90;;;;;;5056813;28;20025;-73
2021/03/17 03:15:55;;;;;;;11.98;6.20;;;2.60;99.90;;;;;;5044771;28;20029;-75
2021/03/17 03:18:22;;;;;;;12.57;5.53;;;2.70;99.90;;;;;;5059158;28;20364;-75
2021/03/17 03:20:49;;;;;;;12.02;5.72;;;2.80;99.90;;;;;;5060703;28;20029;-75
2021/03/17 03:23:17;;;;;;;12.20;5.47;;;2.80;99.90;;;;;;5045181;28;20043;-76
2021/03/17 03:25:45;;;;;;;11.10;5.95;;;2.80;99.90;;;;;;5050346;28;20113;-75
2021/03/17 03:28:12;;;;;;;12.50;5.97;;;2.90;99.90;;;;;;5053449;28;20032;-75
2021/03/17 03:30:42;;;;;;;14.25;6.70;;;3.00;99.90;;;;;;5055435;28;20047;-76
2021/03/17 03:33:08;;;;;;;10.52;5.75;;;3.00;99.90;;;;;;5052676;28;20059;-75
2021/03/17 03:35:34;;;;;;;12.02;5.60;;;3.00;99.90;;;;;;5055836;28;20024;-73
2021/03/17 03:38:12;;;;;;;18.92;6.32;;;3.10;99.90;;;;;;5061997;28;20056;-76
2021/03/17 03:40:40;;;;;;;17.75;5.82;;;3.20;99.90;;;;;;5060237;28;20529;-74
2021/03/17 03:43:08;;;;;;;11.27;5.78;;;3.20;99.90;;;;;;5049122;28;20033;-73
2021/03/17 03:45:36;;;;;;;13.23;5.72;;;3.20;99.90;;;;;;5052920;28;20059;-73
2021/03/17 03:48:06;;;;;;;9.98;5.38;;;3.20;99.90;;;;;;5060845;28;20119;-73
2021/03/17 03:50:39;;;;;;;13.68;5.65;;;3.20;99.90;;;;;;5053647;28;20067;-73
2021/03/17 03:53:12;;;;;;;16.42;5.82;;;3.10;99.90;;;;;;5056207;28;20518;-73
2021/03/17 03:55:43;;;;;;;13.18;5.75;;;3.00;99.90;;;;;;5056002;28;20266;-73
2021/03/17 03:58:13;;;;;;;15.98;6.28;;;3.10;99.90;;;;;;5057706;28;20479;-73
2021/03/17 04:00:42;;;;;;;15.25;5.97;;;3.10;99.90;;;;;;5055700;28;20017;-73
2021/03/17 04:03:08;;;;;;;12.57;5.68;;;3.10;99.90;;;;;;5046944;28;20119;-74
2021/03/17 04:05:37;;;;;;;15.65;6.55;;;3.10;99.90;;;;;;5045860;28;20494;-73
2021/03/17 04:08:17;;;;;;;10.82;5.65;;;3.10;99.90;;;;;;5047738;28;20032;-74
2021/03/17 04:10:44;;;;;;;13.45;5.95;;;3.10;99.90;;;;;;5055616;28;20488;-73
2021/03/17 04:13:12;;;;;;;17.38;5.95;;;3.10;99.90;;;;;;5052166;28;20048;-73
2021/03/17 04:15:38;;;;;;;15.25;6.40;;;3.00;99.90;;;;;;5062789;28;20032;-76
2021/03/17 04:18:14;;;;;;;14.50;5.78;;;3.10;99.90;;;;;;5056394;28;20450;-74
2021/03/17 04:20:45;;;;;;;16.92;6.78;;;3.00;99.90;;;;;;5048187;28;20124;-74
2021/03/17 04:23:12;;;;;;;14.75;6.57;;;3.00;99.90;;;;;;5038222;28;20075;-73
2021/03/17 04:25:42;;;;;;;12.68;5.80;;;3.00;99.90;;;;;;5044281;28;20035;-76
2021/03/17 04:28:13;;;;;;;14.25;5.65;;;3.00;99.90;;;;;;5044507;28;20029;-74
2021/03/17 04:30:39;;;;;;;11.45;5.88;;;3.00;99.90;;;;;;5042176;28;20029;-76
2021/03/17 04:33:05;;;;;;;11.38;5.90;;;3.10;99.90;;;;;;5047403;28;20033;-76
2021/03/17 04:35:31;;;;;;;13.82;6.35;;;3.10;99.90;;;;;;5052131;28;20085;-74
2021/03/17 04:37:57;;;;;;;11.45;5.97;;;3.10;99.90;;;;;;5047762;28;20673;-74
2021/03/17 04:40:24;;;;;;;14.18;5.57;;;3.00;99.90;;;;;;5060976;28;20082;-74
2021/03/17 04:42:50;;;;;;;14.40;5.88;;;2.90;99.90;;;;;;5054826;28;20049;-74
2021/03/17 04:45:17;;;;;;;11.93;5.85;;;3.00;99.90;;;;;;5047205;28;20020;-74
2021/03/17 04:47:44;;;;;;;13.02;6.13;;;3.00;99.90;;;;;;5064114;28;20028;-74
2021/03/17 04:50:13;;;;;;;11.90;6.15;;;3.00;99.90;;;;;;5050981;28;21027;-74
2021/03/17 04:52:40;;;;;;;13.65;6.20;;;3.00;99.90;;;;;;5060010;28;20069;-73
2021/03/17 04:55:07;;;;;;;16.90;5.80;;;3.10;99.90;;;;;;5057921;28;20170;-74
2021/03/17 04:57:39;;;;;;;14.57;6.32;;;3.10;99.90;;;;;;5055731;28;20032;-74
2021/03/17 05:00:09;;;;;;;11.05;5.65;;;3.10;99.90;;;;;;5050813;28;20081;-73
2021/03/17 05:02:38;;;;;;;10.85;6.38;;;3.10;99.90;;;;;;5042187;28;20588;-76
2021/03/17 05:05:06;;;;;;;11.25;6.15;;;3.10;99.90;;;;;;5052744;28;20086;-74
2021/03/17 05:07:32;;;;;;;21.35;6.32;;;3.00;99.90;;;;;;5057344;28;20041;-74
2021/03/17 05:09:59;;;;;;;13.48;6.07;;;3.00;99.90;;;;;;5065369;28;20033;-74
2021/03/17 05:12:26;;;;;;;12.70;5.82;;;3.00;99.90;;;;;;5051642;28;20075;-75
2021/03/17 05:14:53;;;;;;;16.67;5.93;;;2.90;99.90;;;;;;5048744;28;20041;-74
2021/03/17 05:17:28;;;;;;;14.00;6.57;;;2.90;99.90;;;;;;5046355;28;20036;-72
2021/03/17 05:20:08;;;;;;;14.43;5.82;;;2.90;99.90;;;;;;5046040;28;20032;-72
2021/03/17 05:22:35;;;;;;;15.85;6.53;;;2.90;99.90;;;;;;5049570;28;20029;-73
2021/03/17 05:25:05;;;;;;;12.10;5.88;;;2.90;99.90;;;;;;5048167;28;20487;-73
2021/03/17 05:27:36;;;;;;;10.68;5.68;;;3.00;99.90;;;;;;5046610;28;20025;-72
2021/03/17 05:30:08;;;;;;;10.93;5.43;;;3.10;99.90;;;;;;5069416;28;20119;-73
2021/03/17 05:32:34;;;;;;;15.35;6.03;;;3.10;99.90;;;;;;5042416;28;20024;-72
2021/03/17 05:35:04;;;;;;;16.08;5.72;;;3.20;99.90;;;;;;5053920;28;20511;-73
2021/03/17 05:37:32;;;;;;;14.57;5.47;;;3.20;99.90;;;;;;5051776;28;20033;-72
2021/03/17 05:39:57;;;;;;;13.55;6.22;;;3.30;99.90;;;;;;5043484;28;20083;-73
2021/03/17 05:42:24;;;;;;;16.02;5.65;;;3.30;99.90;;;;;;5055207;28;20036;-73
2021/03/17 05:44:52;;;;;;;14.48;6.50;;;3.30;99.90;;;;;;5059443;28;20035;-73
2021/03/17 05:47:19;;;;;;;11.75;5.97;;;3.30;99.90;;;;;;5060497;28;20115;-73
2021/03/17 05:49:45;;;;;;;17.23;6.28;;;3.30;99.90;;;;;;5052059;28;20045;-73
2021/03/17 05:52:11;;;;;;;14.07;5.57;;;3.20;99.90;;;;;;5062211;28;20086;-73
2021/03/17 05:54:36;;;;;;;10.35;5.38;;;3.10;99.90;;;;;;5061034;28;20020;-72
2021/03/17 05:57:03;;;;;;;16.63;6.00;;;3.20;99.90;;;;;;5046015;28;20013;-75
2021/03/17 05:59:32;;;;;;;11.13;5.22;;;3.20;99.90;;;;;;5049181;28;20028;-75
2021/03/17 06:01:59;;;;;;;14.60;5.53;;;3.30;99.90;;;;;;5053523;28;20021;-74
2021/03/17 06:04:26;;;;;;;13.60;6.03;;;3.40;99.90;;;;;;5061701;28;20046;-72
2021/03/17 06:06:56;;;;;;;15.75;5.75;;;3.30;99.90;;;;;;5046506;28;20040;-73
2021/03/17 06:09:24;;;;;;;14.45;6.18;;;3.30;99.90;;;;;;5038547;28;20757;-72
2021/03/17 06:11:50;;;;;;;18.65;6.55;;;3.40;99.90;;;;;;5047386;28;20036;-73
2021/03/17 06:14:20;;;;;;;17.40;5.95;;;3.50;99.90;;;;;;5055677;28;20048;-75
2021/03/17 06:16:48;;;;;;;15.25;5.82;;;3.50;99.90;;;;;;5057087;28;20119;-72
2021/03/17 06:19:14;;;;;;;14.48;5.97;;;3.40;99.90;;;;;;5058105;28;20021;-72
2021/03/17 06:21:41;;;;;;;12.73;5.57;;;3.50;99.90;;;;;;5057522;28;20078;-72
2021/03/17 06:24:10;;;;;;;18.30;5.97;;;3.50;99.90;;;;;;5061910;28;20032;-72
2021/03/17 06:26:38;;;;;;;13.98;6.20;;;3.60;99.90;;;;;;5060844;28;20024;-72
2021/03/17 06:29:04;;;;;;;12.75;5.82;;;3.60;99.90;;;;;;5058083;28;20012;-71
2021/03/17 06:31:31;;;;;;;16.48;6.57;;;3.60;99.90;;;;;;5053574;28;20413;-72
2021/03/17 06:33:57;;;;;;;13.88;6.18;;;3.60;99.90;;;;;;5052166;28;20035;-72
2021/03/17 06:36:25;;;;;;;14.77;5.80;;;3.60;99.90;;;;;;5054671;28;20100;-72
2021/03/17 06:39:11;;;;;;;11.52;6.00;;;3.70;99.90;;;;;;5058821;28;20024;-71
2021/03/17 06:41:44;;;;;;;12.82;6.70;;;3.80;99.90;;;;;;5057166;28;20116;-71
2021/03/17 06:44:10;;;;;;;11.95;5.25;;;3.80;99.90;;;;;;5061176;28;20013;-72
2021/03/17 06:46:35;;;;;;;16.80;7.15;;;3.90;99.90;;;;;;5056482;28;20141;-72
2021/03/17 06:49:01;;;;;;;13.80;5.97;;;3.90;99.90;;;;;;5058789;28;20080;-75
2021/03/17 06:51:30;;;;;;;14.73;6.22;;;3.90;99.90;;;;;;5059348;28;20021;-72
2021/03/17 06:53:57;;;;;;;12.57;5.65;;;3.90;99.90;;;;;;5058489;28;20027;-72
2021/03/17 06:56:34;;;;;;;13.98;6.13;;;3.90;99.90;;;;;;5055863;28;20025;-71
2021/03/17 06:59:03;;;;;;;12.93;5.70;;;4.00;99.90;;;;;;5060197;28;20066;-70
2021/03/17 07:01:36;;;;;;;12.60;5.28;;;4.10;99.90;;;;;;5055161;28;20028;-71
2021/03/17 07:04:35;;;;;;;12.57;6.30;;;4.20;99.90;;;;;;5051517;28;20115;-69
2021/03/17 07:07:02;;;;;;;14.05;6.13;;;4.20;99.90;;;;;;5047691;28;20033;-70
2021/03/17 07:09:29;;;;;;;13.60;6.35;;;4.20;99.90;;;;;;5053604;28;20025;-70
2021/03/17 07:12:04;;;;;;;14.85;5.65;;;4.30;99.90;;;;;;5056218;28;20491;-69
2021/03/17 07:14:39;;;;;;;19.45;6.10;;;4.20;99.90;;;;;;5054820;28;20391;-69
2021/03/17 07:17:30;;;;;;;16.38;5.82;;;4.20;99.90;;;;;;5057453;28;20024;-69
2021/03/17 07:19:55;;;;;;;23.85;6.97;;;4.30;99.90;;;;;;5059167;28;20185;-69
2021/03/17 07:22:23;;;;;;;14.85;6.50;;;4.20;99.90;;;;;;5057726;28;20099;-69
2021/03/17 07:24:59;;;;;;;13.18;5.55;;;4.30;99.90;;;;;;5050438;28;20377;-69
2021/03/17 07:27:28;;;;;;;16.63;6.07;;;4.40;99.90;;;;;;5058383;28;20134;-69
2021/03/17 07:30:02;;;;;;;15.48;6.00;;;4.40;99.90;;;;;;5059855;28;20036;-70
2021/03/17 07:33:00;;;;;;;14.95;5.40;;;4.40;99.90;;;;;;5059330;28;20575;-71
2021/03/17 07:35:27;;;;;;;12.80;5.85;;;4.50;99.90;;;;;;5060268;28;20047;-72
2021/03/17 07:38:09;;;;;;;14.50;7.65;;;4.40;99.90;;;;;;5056302;28;20037;-72
2021/03/17 07:40:39;;;;;;;12.90;6.18;;;4.40;99.90;;;;;;5060602;28;20027;-83
2021/03/17 07:43:05;;;;;;;17.80;7.25;;;4.40;99.90;;;;;;5057973;28;20056;-71
2021/03/17 07:45:34;;;;;;;20.45;7.68;;;4.40;99.90;;;;;;5056766;28;20064;-70
2021/03/17 07:48:04;;;;;;;16.27;7.35;;;4.40;99.90;;;;;;5049545;28;20033;-70
2021/03/17 07:50:30;;;;;;;14.65;6.95;;;4.40;99.90;;;;;;5050029;28;20041;-70
2021/03/17 07:52:59;;;;;;;12.40;6.22;;;4.50;99.90;;;;;;5060446;28;20376;-71
2021/03/17 07:55:25;;;;;;;15.45;6.28;;;4.40;99.90;;;;;;5058781;28;20028;-71
2021/03/17 07:57:51;;;;;;;15.13;7.47;;;4.50;99.90;;;;;;5057826;28;20051;-71
2021/03/17 08:00:17;;;;;;;13.00;7.22;;;4.60;99.90;;;;;;5058189;28;20574;-71
2021/03/17 08:02:44;;;;;;;14.55;6.47;;;4.70;99.90;;;;;;5058857;28;20021;-71
2021/03/17 08:05:11;;;;;;;15.00;7.47;;;4.80;99.90;;;;;;5059869;28;20032;-71
2021/03/17 08:07:37;;;;;;;17.42;6.82;;;4.90;99.90;;;;;;5036441;28;20032;-71
2021/03/17 08:10:03;;;;;;;15.75;7.05;;;5.00;99.90;;;;;;5056744;28;20025;-71
2021/03/17 08:12:30;;;;;;;15.68;7.13;;;5.00;99.90;;;;;;5054703;28;20111;-71
2021/03/17 08:14:56;;;;;;;13.77;6.63;;;5.10;99.90;;;;;;5052594;28;20120;-71
2021/03/17 08:17:36;;;;;;;15.02;7.60;;;5.10;99.90;;;;;;5053523;28;20458;-71
2021/03/17 08:20:19;;;;;;;12.07;6.57;;;5.20;99.90;;;;;;5055291;28;20115;-71
2021/03/17 08:22:46;;;;;;;13.88;6.22;;;5.20;99.90;;;;;;5053143;28;20082;-71
2021/03/17 08:25:32;;;;;;;15.75;8.35;;;5.30;99.90;;;;;;5052381;28;20032;-70
2021/03/17 08:28:21;;;;;;;18.80;8.38;;;5.40;99.90;;;;;;5054676;28;20024;-71
2021/03/17 08:30:49;;;;;;;14.63;6.68;;;5.50;99.90;;;;;;5058966;28;20094;-71
2021/03/17 08:33:34;;;;;;;16.83;7.65;;;5.60;99.90;;;;;;5060440;28;20063;-70
2021/03/17 08:36:05;;;;;;;20.65;8.50;;;5.60;99.90;;;;;;5059372;28;20064;-71
2021/03/17 08:38:54;;;;;;;15.52;6.90;;;5.60;99.90;;;;;;5059790;28;20044;-70
2021/03/17 08:41:38;;;;;;;13.05;6.13;;;5.60;99.90;;;;;;5062513;28;20035;-71
2021/03/17 08:44:18;;;;;;;14.10;6.30;;;5.60;99.90;;;;;;5063698;28;20506;-71
2021/03/17 08:46:45;;;;;;;18.05;7.50;;;5.60;99.90;;;;;;5062829;28;20028;-71
2021/03/17 08:49:12;;;;;;;12.43;6.60;;;5.60;99.90;;;;;;5065058;28;20048;-71
2021/03/17 08:51:46;;;;;;;13.65;6.50;;;5.70;99.90;;;;;;5063829;28;20115;-71
2021/03/17 08:54:30;;;;;;;11.80;6.38;;;5.60;99.90;;;;;;5064544;28;20017;-71
2021/03/17 08:56:57;;;;;;;13.98;6.60;;;5.80;99.90;;;;;;5062586;28;20503;-71
2021/03/17 08:59:23;;;;;;;13.25;6.50;;;5.70;99.90;;;;;;5062673;28;20059;-71
2021/03/17 09:01:48;;;;;;;13.35;6.53;;;5.70;99.90;;;;;;5062413;28;20052;-71
2021/03/17 09:04:43;;;;;;;11.77;6.90;;;5.80;99.90;;;;;;5058903;28;20048;-71
2021/03/17 09:07:09;;;;;;;16.17;7.10;;;5.80;99.90;;;;;;5056906;28;20070;-71
2021/03/17 09:09:45;;;;;;;11.25;5.90;;;5.70;99.90;;;;;;5059560;28;20228;-71
2021/03/17 09:12:11;;;;;;;12.05;6.32;;;5.90;99.90;;;;;;5055580;28;20052;-71
2021/03/17 09:14:39;;;;;;;14.27;6.65;;;5.90;99.90;;;;;;5058144;28;20059;-71
2021/03/17 09:17:22;;;;;;;15.48;6.65;;;5.90;99.90;;;;;;5056086;28;20848;-71
2021/03/17 09:19:59;;;;;;;15.55;6.28;;;5.90;99.90;;;;;;5054158;28;20490;-71
2021/03/17 09:22:45;;;;;;;13.07;6.35;;;5.90;99.90;;;;;;5061232;28;20028;-70
2021/03/17 09:25:11;;;;;;;13.63;6.20;;;6.00;99.90;;;;;;5045215;28;20097;-71
2021/03/17 09:27:47;;;;;;;16.42;6.05;;;6.10;99.90;;;;;;5059232;28;20033;-71
2021/03/17 09:30:15;;;;;;;14.70;6.03;;;6.30;99.90;;;;;;5064631;28;20036;-70
2021/03/17 09:32:40;;;;;;;9.90;5.65;;;6.40;99.90;;;;;;5041251;28;20029;-71
2021/03/17 09:35:07;;;;;;;12.57;6.35;;;6.50;99.90;;;;;;5058223;28;20055;-71
2021/03/17 09:37:32;;;;;;;14.30;6.72;;;6.50;99.90;;;;;;5058371;28;20047;-71
2021/03/17 09:39:58;;;;;;;13.50;6.45;;;6.60;99.90;;;;;;5057836;28;20020;-71
2021/03/17 09:42:24;;;;;;;12.00;6.28;;;6.60;99.90;;;;;;5054968;28;20025;-71
2021/03/17 09:44:58;;;;;;;10.32;5.55;;;6.60;99.90;;;;;;5063262;28;20033;-72
2021/03/17 09:47:31;;;;;;;17.60;5.65;;;6.80;99.90;;;;;;5063430;28;20474;-71
2021/03/17 09:49:57;;;;;;;11.30;5.70;;;6.80;99.90;;;;;;5062411;28;20430;-71
2021/03/17 09:52:24;;;;;;;12.05;5.68;;;6.70;99.90;;;;;;5062376;28;20021;-71
2021/03/17 09:54:50;;;;;;;10.80;5.45;;;6.70;99.90;;;;;;5061092;28;20182;-71
2021/03/17 09:57:16;;;;;;;12.43;5.72;;;6.70;99.90;;;;;;5063680;28;20538;-71
2021/03/17 09:59:48;;;;;;;13.13;6.38;;;6.70;99.90;;;;;;5063896;28;20032;-71
2021/03/17 10:02:24;;;;;;;10.88;5.55;;;6.80;99.90;;;;;;5061928;28;20082;-71
2021/03/17 10:05:01;;;;;;;8.95;4.95;;;6.80;99.90;;;;;;5060305;28;20103;-71
2021/03/17 10:07:29;;;;;;;10.20;5.45;;;6.90;99.90;;;;;;5062084;28;20029;-71
2021/03/17 10:09:56;;;;;;;10.73;5.55;;;6.60;99.90;;;;;;5059400;28;20497;-71
2021/03/17 10:12:27;;;;;;;9.70;5.43;;;6.60;99.90;;;;;;5056043;28;20075;-72
2021/03/17 10:15:01;;;;;;;7.97;4.37;;;6.60;99.90;;;;;;5058559;28;20047;-71
2021/03/17 10:17:29;;;;;;;8.73;4.70;;;6.60;99.90;;;;;;5056847;28;20025;-71
2021/03/17 10:19:56;;;;;;;11.95;5.00;;;6.80;99.90;;;;;;5057824;28;20111;-73
2021/03/17 10:22:25;;;;;;;9.40;4.50;;;6.80;99.90;;;;;;5058293;28;20151;-71
2021/03/17 10:24:52;;;;;;;8.00;4.28;;;7.00;99.90;;;;;;5059347;28;20068;-71
2021/03/17 10:27:20;;;;;;;8.13;4.50;;;7.10;99.90;;;;;;5058752;28;20514;-71
2021/03/17 10:29:49;;;;;;;10.98;5.07;;;7.10;99.90;;;;;;5060802;28;20039;-71
2021/03/17 10:32:20;;;;;;;10.02;4.90;;;7.10;99.90;;;;;;5063092;28;20107;-72
2021/03/17 10:34:47;;;;;;;10.82;5.55;;;7.20;99.90;;;;;;5057726;28;20024;-71
2021/03/17 10:37:17;;;;;;;9.82;5.03;;;7.20;99.90;;;;;;5056339;28;20671;-73
2021/03/17 10:39:42;;;;;;;12.93;5.95;;;7.30;99.90;;;;;;5057025;28;20020;-72
2021/03/17 10:42:20;;;;;;;9.65;5.18;;;7.30;99.90;;;;;;5052902;28;20467;-72
2021/03/17 10:44:59;;;;;;;10.30;5.38;;;7.30;99.90;;;;;;5057258;28;20021;-71
2021/03/17 10:47:25;;;;;;;11.10;5.60;;;7.40;99.90;;;;;;5056370;28;20511;-71
2021/03/17 10:49:50;;;;;;;9.20;5.22;;;7.30;99.90;;;;;;5053605;28;20052;-71
2021/03/17 10:52:16;;;;;;;8.60;4.85;;;7.20;99.90;;;;;;5058310;28;20583;-72
2021/03/17 10:54:44;;;;;;;9.18;4.90;;;7.20;99.90;;;;;;5057987;28;20028;-72
2021/03/17 10:57:18;;;;;;;7.63;4.75;;;7.10;99.90;;;;;;5055752;28;20111;-72
2021/03/17 10:59:44;;;;;;;7.72;4.75;;;7.20;99.90;;;;;;5057881;28;20059;-71
2021/03/17 11:02:28;;;;;;;8.68;4.90;;;7.30;99.90;;;;;;5061254;28;20028;-72
2021/03/17 11:05:05;;;;;;;6.90;4.03;;;7.20;99.90;;;;;;5058843;28;20508;-72
2021/03/17 11:07:50;;;;;;;6.15;3.80;;;7.30;99.90;;;;;;5059671;28;20025;-71
2021/03/17 11:10:46;;;;;;;5.72;3.42;;;7.20;99.90;;;;;;5062034;28;20064;-72
2021/03/17 11:13:17;;;;;;;6.32;3.45;;;7.20;99.90;;;;;;5060598;28;20029;-72
2021/03/17 11:16:03;;;;;;;7.13;3.05;;;7.20;99.90;;;;;;5058140;28;20024;-72
2021/03/17 11:18:30;;;;;;;5.18;3.10;;;7.30;99.90;;;;;;5058151;28;20692;-72
2021/03/17 11:21:00;;;;;;;5.47;3.00;;;7.30;99.90;;;;;;5056364;28;20028;-72
2021/03/17 11:23:31;;;;;;;4.57;2.72;;;7.40;99.90;;;;;;5059737;28;20020;-71
2021/03/17 11:25:57;;;;;;;5.67;3.03;;;7.40;99.90;;;;;;5054730;28;20082;-72
2021/03/17 11:28:25;;;;;;;6.50;3.72;;;7.40;99.90;;;;;;5051647;28;21321;-72
2021/03/17 11:30:57;;;;;;;5.03;2.60;;;7.50;99.90;;;;;;5054264;28;20029;-72
2021/03/17 11:33:23;;;;;;;5.47;2.75;;;7.50;99.90;;;;;;5055777;28;20425;-72
2021/03/17 11:35:54;;;;;;;7.35;2.88;;;7.60;99.90;;;;;;5056544;28;20475;-72
2021/03/17 11:38:20;;;;;;;4.65;2.88;;;8.00;99.90;;;;;;5055904;28;20088;-72
2021/03/17 11:40:46;;;;;;;4.30;2.78;;;8.30;99.90;;;;;;5052969;28;20029;-72
2021/03/17 11:43:18;;;;;;;3.67;2.67;;;8.40;99.90;;;;;;5058730;28;20550;-73
2021/03/17 11:45:45;;;;;;;4.00;2.65;;;8.50;99.90;;;;;;5060815;28;20032;-71
2021/03/17 11:48:11;;;;;;;5.10;2.95;;;8.40;99.90;;;;;;5063683;28;20368;-72
2021/03/17 11:50:39;;;;;;;9.50;3.90;;;8.40;99.90;;;;;;5061247;28;20037;-72
2021/03/17 11:53:05;;;;;;;3.75;2.42;;;8.40;99.90;;;;;;5059589;28;20052;-72
2021/03/17 11:55:31;;;;;;;7.53;3.72;;;8.30;99.90;;;;;;5062896;28;20126;-71
2021/03/17 11:57:56;;;;;;;8.82;4.28;;;8.30;99.90;;;;;;5057945;28;20027;-72
2021/03/17 12:00:23;;;;;;;8.05;4.13;;;8.30;99.90;;;;;;5062442;28;20111;-72
2021/03/17 12:02:49;;;;;;;9.50;4.55;;;8.20;99.90;;;;;;5056891;28;20024;-72
2021/03/17 12:05:16;;;;;;;14.80;5.75;;;8.10;99.90;;;;;;5056449;28;20063;-72
2021/03/17 12:07:42;;;;;;;17.55;7.38;;;8.00;99.90;;;;;;5057609;28;20031;-72
2021/03/17 12:10:09;;;;;;;5.70;3.40;;;8.00;99.90;;;;;;5056102;28;20112;-72
2021/03/17 12:12:35;;;;;;;8.55;4.10;;;7.90;99.90;;;;;;5055728;28;20859;-71
2021/03/17 12:15:06;;;;;;;17.70;5.78;;;7.90;99.90;;;;;;5056666;28;20115;-74
2021/03/17 12:17:32;;;;;;;16.65;5.80;;;7.90;99.90;;;;;;5057349;28;20032;-73
2021/03/17 12:19:57;;;;;;;7.78;3.53;;;8.00;99.90;;;;;;5055294;28;20036;-72
2021/03/17 12:22:23;;;;;;;37.78;10.88;;;8.20;99.90;;;;;;5056247;28;20039;-72
2021/03/17 12:24:52;;;;;;;12.18;4.78;;;8.50;99.90;;;;;;5054666;28;20028;-71
2021/03/17 12:27:17;;;;;;;4.60;3.17;;;8.80;99.90;;;;;;5059419;28;20032;-72
2021/03/17 12:29:43;;;;;;;3.33;2.13;;;9.40;97.90;;;;;;5056953;28;20039;-72
2021/03/17 12:32:08;;;;;;;3.47;2.22;;;9.80;96.10;;;;;;5060563;28;20037;-73
2021/03/17 12:34:34;;;;;;;3.67;2.28;;;10.40;95.20;;;;;;5058411;28;20112;-72
2021/03/17 12:37:00;;;;;;;5.00;2.78;;;10.70;93.40;;;;;;5057185;28;20054;-72
2021/03/17 12:39:26;;;;;;;3.25;2.35;;;11.00;90.70;;;;;;5059617;28;20032;-72
2021/03/17 12:41:52;;;;;;;5.60;2.78;;;11.30;91.20;;;;;;5059405;28;20033;-72
2021/03/17 12:44:17;;;;;;;3.20;2.13;;;11.60;88.60;;;;;;5056142;28;20515;-72
2021/03/17 12:46:43;;;;;;;4.28;2.92;;;12.10;86.50;;;;;;5056084;28;20033;-72
2021/03/17 12:49:08;;;;;;;3.72;2.17;;;13.40;80.90;;;;;;5054515;28;20167;-72
2021/03/17 12:51:34;;;;;;;4.80;2.30;;;14.60;70.40;;;;;;5052994;28;20025;-74
2021/03/17 12:53:59;;;;;;;3.47;2.00;;;15.50;65.00;;;;;;5060253;28;20024;-73
2021/03/17 12:56:25;;;;;;;3.10;2.10;;;15.40;60.40;;;;;;5058990;28;20570;-72
2021/03/17 12:58:51;;;;;;;1.15;0.90;;;14.50;62.90;;;;;;5060678;28;20074;-72
2021/03/17 13:01:16;;;;;;;0.50;0.50;;;12.70;69.50;;;;;;5061521;28;20561;-72
2021/03/17 13:03:43;;;;;;;0.98;0.55;;;11.30;75.60;;;;;;5061426;28;20022;-72